• Join FlightAware (Why Join?)
  • Login
  • US Flag 
02:52PM EDT


 

Airport Tracker/Info


-or-


 

Live Flight TrackerFlight Track Log ✈ AWI3680 ✈ 03-Jul-2013 ✈ KPHL - KALB

Flight Track Log - Related Links

Times and Time Zones

All times are in EDT time to prevent confusion due to time zone crossing. See the AWI3680 flight status page for this flight to view local times or setup timezone preferences in your user account.

Time Position Orientation Groundspeed Altitude Reporting Facility
EDT Latitude Longitude Course Direction KTS MPH feet Rate Location/Type
07:53PM 39.8667 -75.2833 237° Southwest 167 192 800  Level Philadelphia TRACON
07:53PM 39.8500 -75.3167 237° Southwest 184 212 1,800 2,040 Climbing Philadelphia TRACON
07:54PM 39.8500 -75.4000 270° West 217 250 4,100 2,040 Climbing Philadelphia TRACON
07:55PM 39.8925 -75.4244 336° Northwest 265 305 5,200 2,100 Climbing New York Center
07:56PM 39.9603 -75.4508 343° North 289 333 7,600 2,280 Climbing New York Center
07:57PM 40.0464 -75.4836 344° North 294 338 9,900 2,100 Climbing New York Center
07:58PM 40.1200 -75.5183 340° North 300 345 11,900 1,500 Climbing New York Center
07:59PM 40.2067 -75.5433 348° North 307 353 13,000 540 Climbing New York Center
08:00PM 40.3092 -75.5342 North 338 389 13,000 300 Level New York Center
08:01PM 40.4008 -75.5322 North 362 417 13,600 960 Climbing New York Center
08:02PM 40.5178 -75.5267 North 370 426 15,000 660 Climbing New York Center
08:03PM 40.6203 -75.5203 North 395 455 15,000  Level New York Center
08:04PM 40.7475 -75.5153 North 410 472 15,000 -60 Level New York Center
08:05PM 40.8644 -75.5097 North 415 478 14,900 480 Descending New York Center
08:06PM 40.9689 -75.5061 North 415 478 16,000 1,080 Climbing New York Center
08:07PM 41.0919 -75.5008 North 410 472 17,100 540 Climbing New York Center
08:08PM 41.2108 -75.4953 North 410 472 17,100 -60 Level New York Center
08:09PM 41.3342 -75.4875 North 427 491 17,000 -60 Descending New York Center
08:11PM 41.5522 -75.4278 12° North 420 483 17,000  Level Boston Center
08:12PM 41.6564 -75.3467 30° Northeast 413 475 17,000  Level Boston Center
08:13PM 41.7628 -75.2708 28° Northeast 418 481 17,100  Climbing Boston Center
08:14PM 41.8647 -75.1944 29° Northeast 423 487 17,000 -60 Descending Boston Center
08:15PM 41.9686 -75.1181 29° Northeast 423 487 17,000 -60 Level Boston Center
08:16PM 42.0683 -75.0411 30° Northeast 423 487 16,900 -300 Descending Boston Center
08:17PM 42.1703 -74.9614 30° Northeast 418 481 16,500 -840 Descending Boston Center
08:18PM 42.2417 -74.8353 53° Northeast 418 481 15,300 -1,260 Descending Boston Center
08:18PM 42.2875 -74.7414 57° Northeast 427 491 14,400 -1,320 Descending Boston Center
08:19PM 42.3525 -74.6117 56° Northeast 417 480 13,100 -1,320 Descending Boston Center
08:20PM 42.4153 -74.4817 57° Northeast 416 479 11,800 -1,260 Descending Boston Center
08:21PM 42.4781 -74.3600 55° Northeast 381 438 10,600 -1,200 Descending Boston Center
08:22PM 42.5256 -74.2544 59° Northeast 308 354 9,400 -1,440 Descending Boston Center
08:23PM 42.5789 -74.1686 50° Northeast 288 331 7,700 -1,860 Descending Boston Center
08:24PM 42.6406 -74.1025 38° Northeast 279 321 5,700 -2,040 Descending Boston Center
08:25PM 42.7061 -74.0364 37° Northeast 283 326 3,700 -1,440 Descending Boston Center
08:26PM 42.7653 -73.9700 39° Northeast 246 283 2,900 -840 Descending Boston Center